• Join FlightAware (Why Join?)
  • Login
  • US Flag 
Gobble Gobble! 
11:32AM EST


 

Airport Tracker/Info


-or-


 

Live Flight TrackerFlight Track Log ✈ QXE2743 ✈ 10-Jun-2014 ✈ KMSO - KSEA

Flight Track Log - Related Links

Times and Time Zones

All times are in EDT time to prevent confusion due to time zone crossing. See the QXE2743 flight status page for this flight to view local times or setup timezone preferences in your user account.

Time Position Orientation Groundspeed Altitude Reporting Facility
EDT Latitude Longitude Course Direction KTS MPH feet Rate Location/Type
03:27PM 47.2401 -114.7869 296° West  Level FlightAware Approximate
03:28PM 47.2712 -114.8984 282° West  Level FlightAware Approximate
03:29PM 47.2929 -115.0150 294° West  Level FlightAware Approximate
03:30PM 47.3262 -115.1261 294° West  Level FlightAware Approximate
03:31PM 47.3536 -115.2406 288° West  Level FlightAware Approximate
03:32PM 47.3792 -115.3561 288° West  Level FlightAware Approximate
03:33PM 47.4058 -115.4712 292° West  Level FlightAware Approximate
03:34PM 47.4366 -115.5841 292° West  Level FlightAware Approximate
03:35PM 47.4511 -115.7020 275° West  Level FlightAware Approximate
03:36PM 47.4584 -115.8233 275° West  Level FlightAware Approximate
03:37PM 47.4654 -115.9447 275° West  Level FlightAware Approximate
03:38PM 47.4724 -116.0661 275° West  Level FlightAware Approximate
03:39PM 47.4793 -116.1875 275° West  Level FlightAware Approximate
03:40PM 47.4860 -116.3090 275° West  Level FlightAware Approximate
03:41PM 47.4925 -116.4305 275° West  Level FlightAware Approximate
03:42PM 47.4990 -116.5520 275° West  Level FlightAware Approximate
03:43PM 47.5053 -116.6735 274° West  Level FlightAware Approximate
03:44PM 47.5115 -116.7951 274° West  Level FlightAware Approximate
03:45PM 47.5176 -116.9167 274° West  Level FlightAware Approximate
03:46PM 47.5235 -117.0384 274° West  Level FlightAware Approximate
03:47PM 47.5293 -117.1600 274° West  Level FlightAware Approximate
03:48PM 47.5350 -117.2817 274° West  Level FlightAware Approximate
03:49PM 47.5406 -117.4034 274° West  Level FlightAware Approximate
03:50PM 47.5460 -117.5252 274° West  Level FlightAware Approximate
03:51PM 47.5534 -117.6466 279° West  Level FlightAware Approximate
03:52PM 47.5668 -117.7670 279° West  Level FlightAware Approximate
03:53PM 47.5801 -117.8875 279° West  Level FlightAware Approximate
03:54PM 47.5926 -118.0081 279° West  Level FlightAware Approximate
03:55PM 47.6047 -118.1290 278° West  Level FlightAware Approximate
03:56PM 47.6166 -118.2498 278° West  Level FlightAware Approximate
03:57PM 47.6285 -118.3708 278° West  Level FlightAware Approximate
03:58PM 47.6402 -118.4917 278° West  Level FlightAware Approximate
03:59PM 47.6518 -118.6128 278° West  Level FlightAware Approximate
04:00PM 47.6632 -118.7338 278° West  Level FlightAware Approximate
04:01PM 47.6745 -118.8550 278° West  Level FlightAware Approximate
04:02PM 47.6850 -118.9763 276° West  Level FlightAware Approximate
04:03PM 47.6928 -119.0981 275° West  Level FlightAware Approximate
04:04PM 47.7005 -119.2199 275° West  Level FlightAware Approximate
04:05PM 47.7081 -119.3418 275° West  Level FlightAware Approximate
04:06PM 47.7155 -119.4637 275° West  Level FlightAware Approximate
04:07PM 47.7248 -119.5853 277° West  Level FlightAware Approximate
04:08PM 47.7343 -119.7069 277° West  Level FlightAware Approximate
04:09PM 47.7437 -119.8286 277° West  Level FlightAware Approximate
04:10PM 47.7530 -119.9503 277° West  Level FlightAware Approximate
04:11PM 47.7621 -120.0721 276° West  Level FlightAware Approximate
04:12PM 47.7833 -120.1884 270° West  Level FlightAware Approximate
04:13PM 47.7834 -120.3110 270° West  Level FlightAware Approximate
04:14PM 47.7924 -120.4326 278° West  Level FlightAware Approximate
04:15PM 47.8025 -120.5543 276° West  Level FlightAware Approximate
04:16PM 47.8107 -120.6763 276° West  Level FlightAware Approximate
04:17PM 47.8176 -120.7948 277° West  Level FlightAware Approximate
04:18PM 47.8275 -120.9129 277° West  Level FlightAware Approximate
04:19PM 47.8333 -121.0313 270° West  Level FlightAware Approximate
04:20PM 47.8457 -121.1487 281° West  Level FlightAware Approximate
04:21PM 47.8560 -121.2667 276° West  Level FlightAware Approximate
04:22PM 47.8644 -121.3851 276° West  Level FlightAware Approximate
04:23PM 47.8725 -121.5036 276° West  Level FlightAware Approximate
04:24PM 47.8804 -121.6222 276° West  Level FlightAware Approximate
04:25PM 47.8605 -121.7229 214° Southwest  Level FlightAware Approximate
04:26PM 47.7986 -121.7969 228° Southwest  Level FlightAware Approximate
04:27PM 47.7441 -121.8838 225° Southwest  Level FlightAware Approximate
04:28PM 47.6853 -121.9641 222° Southwest  Level FlightAware Approximate
04:29PM 47.6250 -122.0417 214° Southwest  Level FlightAware Approximate
04:30PM 47.5610 -122.1114 233° Southwest  Level FlightAware Approximate
04:31PM 47.5110 -122.1872 228° Southwest  Level FlightAware Approximate
04:32PM 47.4799 -122.2379 222° Southwest  Level FlightAware Approximate
04:33PM 47.4333 -122.3000 222° Southwest  Level FlightAware Approximate
04:34PM 47.4499 -122.3118 222° Southwest  Level Estimated
04:35PM 47.4499 -122.3118 222° Southwest  Level Estimated
04:36PM 47.4499 -122.3118 222° Southwest  Level Estimated
04:37PM 47.4499 -122.3118 222° Southwest  Level Estimated
04:38PM 47.4499 -122.3118 222° Southwest  Level Estimated
04:39PM 47.4499 -122.3118 222° Southwest  Level Estimated
04:40PM 47.4499 -122.3118 222° Southwest  Level Estimated
04:41PM 47.4499 -122.3118 222° Southwest  Level Estimated
04:42PM 47.4499 -122.3118 222° Southwest  Level Estimated
04:43PM 47.4499 -122.3118 222° Southwest  Level Estimated
04:44PM 47.4499 -122.3118 180° South  Level Estimated
04:45PM 47.4499 -122.3118 North  Level Estimated
04:46PM 47.4499 -122.3118 180° South  Level Estimated
04:47PM 47.4499 -122.3118 North  Level Estimated
04:48PM 47.4499 -122.3118 180° South  Level Estimated
04:49PM 47.4499 -122.3118 North  Level Estimated
04:50PM 47.4499 -122.3118 180° South  Level Estimated
04:51PM 47.4499 -122.3118 North  Level Estimated
04:52PM 47.4499 -122.3118 180° South  Level Estimated
04:53PM 47.4499 -122.3118 North  Level Estimated
04:54PM 47.4499 -122.3118 180° South  Level Estimated
04:55PM 47.4499 -122.3118 North  Level Estimated
04:56PM 47.4499 -122.3118 180° South  Level Estimated
04:57PM 47.4499 -122.3118 North  Level Estimated